sensor_id;sensor_type;location;lat;lon;timestamp;P1;durP1;ratioP1;P2;durP2;ratioP2
69203;SDS011;56317;27.658;85.326;2024-03-08T00:00:08;100.03;;;41.10;;
69203;SDS011;56317;27.658;85.326;2024-03-08T00:05:07;93.88;;;41.03;;
69203;SDS011;56317;27.658;85.326;2024-03-08T00:07:35;93.95;;;42.83;;
69203;SDS011;56317;27.658;85.326;2024-03-08T00:10:06;110.03;;;45.42;;
69203;SDS011;56317;27.658;85.326;2024-03-08T00:12:38;152.18;;;61.10;;
69203;SDS011;56317;27.658;85.326;2024-03-08T00:15:10;122.68;;;54.63;;
69203;SDS011;56317;27.658;85.326;2024-03-08T00:17:41;122.45;;;57.42;;
69203;SDS011;56317;27.658;85.326;2024-03-08T00:20:10;116.13;;;55.47;;
69203;SDS011;56317;27.658;85.326;2024-03-08T00:22:38;125.70;;;57.33;;
69203;SDS011;56317;27.658;85.326;2024-03-08T00:25:06;112.13;;;53.92;;
69203;SDS011;56317;27.658;85.326;2024-03-08T00:27:40;124.65;;;57.63;;
69203;SDS011;56317;27.658;85.326;2024-03-08T00:30:07;135.32;;;62.25;;
69203;SDS011;56317;27.658;85.326;2024-03-08T00:32:36;157.27;;;70.10;;
69203;SDS011;56317;27.658;85.326;2024-03-08T00:35:03;164.63;;;72.85;;
69203;SDS011;56317;27.658;85.326;2024-03-08T00:37:32;138.10;;;67.50;;
69203;SDS011;56317;27.658;85.326;2024-03-08T00:40:02;136.50;;;61.53;;
69203;SDS011;56317;27.658;85.326;2024-03-08T00:42:34;123.63;;;58.05;;
69203;SDS011;56317;27.658;85.326;2024-03-08T00:45:04;86.35;;;45.25;;
69203;SDS011;56317;27.658;85.326;2024-03-08T00:47:31;81.75;;;41.70;;
69203;SDS011;56317;27.658;85.326;2024-03-08T00:49:58;66.03;;;34.67;;
69203;SDS011;56317;27.658;85.326;2024-03-08T00:52:29;68.78;;;37.15;;
69203;SDS011;56317;27.658;85.326;2024-03-08T00:54:56;76.55;;;38.20;;
69203;SDS011;56317;27.658;85.326;2024-03-08T00:57:23;128.57;;;52.72;;
69203;SDS011;56317;27.658;85.326;2024-03-08T00:59:50;200.45;;;73.93;;
69203;SDS011;56317;27.658;85.326;2024-03-08T01:02:18;239.40;;;88.55;;
69203;SDS011;56317;27.658;85.326;2024-03-08T01:04:47;315.98;;;126.18;;
69203;SDS011;56317;27.658;85.326;2024-03-08T01:07:15;142.50;;;64.32;;
69203;SDS011;56317;27.658;85.326;2024-03-08T01:09:42;260.48;;;103.75;;
69203;SDS011;56317;27.658;85.326;2024-03-08T01:12:10;271.50;;;112.85;;
69203;SDS011;56317;27.658;85.326;2024-03-08T01:14:37;239.32;;;100.13;;
69203;SDS011;56317;27.658;85.326;2024-03-08T01:17:04;220.18;;;90.80;;
69203;SDS011;56317;27.658;85.326;2024-03-08T01:19:32;141.27;;;61.20;;
69203;SDS011;56317;27.658;85.326;2024-03-08T01:21:59;125.63;;;53.42;;
69203;SDS011;56317;27.658;85.326;2024-03-08T01:24:27;90.90;;;41.72;;
69203;SDS011;56317;27.658;85.326;2024-03-08T01:26:55;88.15;;;38.47;;
69203;SDS011;56317;27.658;85.326;2024-03-08T01:29:22;76.85;;;36.10;;
69203;SDS011;56317;27.658;85.326;2024-03-08T01:31:49;80.55;;;36.13;;
69203;SDS011;56317;27.658;85.326;2024-03-08T01:34:18;78.00;;;35.45;;
69203;SDS011;56317;27.658;85.326;2024-03-08T01:36:45;66.38;;;35.80;;
69203;SDS011;56317;27.658;85.326;2024-03-08T01:39:12;84.95;;;39.60;;
69203;SDS011;56317;27.658;85.326;2024-03-08T01:41:39;67.35;;;33.53;;
69203;SDS011;56317;27.658;85.326;2024-03-08T01:44:06;67.25;;;31.80;;
69203;SDS011;56317;27.658;85.326;2024-03-08T01:46:34;51.78;;;27.25;;
69203;SDS011;56317;27.658;85.326;2024-03-08T01:49:02;55.58;;;28.40;;
69203;SDS011;56317;27.658;85.326;2024-03-08T01:51:29;69.32;;;31.42;;
69203;SDS011;56317;27.658;85.326;2024-03-08T01:53:57;58.63;;;29.17;;
69203;SDS011;56317;27.658;85.326;2024-03-08T01:56:27;65.15;;;31.42;;
69203;SDS011;56317;27.658;85.326;2024-03-08T01:58:57;79.57;;;38.38;;
69203;SDS011;56317;27.658;85.326;2024-03-08T02:01:25;91.00;;;44.75;;
69203;SDS011;56317;27.658;85.326;2024-03-08T02:03:54;100.80;;;49.10;;
69203;SDS011;56317;27.658;85.326;2024-03-08T02:06:21;111.25;;;57.03;;
69203;SDS011;56317;27.658;85.326;2024-03-08T02:08:48;115.88;;;56.17;;
69203;SDS011;56317;27.658;85.326;2024-03-08T02:11:15;111.93;;;55.15;;
69203;SDS011;56317;27.658;85.326;2024-03-08T02:13:44;116.18;;;56.50;;
69203;SDS011;56317;27.658;85.326;2024-03-08T02:16:11;115.72;;;52.65;;
69203;SDS011;56317;27.658;85.326;2024-03-08T02:18:39;98.60;;;49.80;;
69203;SDS011;56317;27.658;85.326;2024-03-08T02:21:06;91.63;;;45.95;;
69203;SDS011;56317;27.658;85.326;2024-03-08T02:23:35;104.47;;;52.50;;
69203;SDS011;56317;27.658;85.326;2024-03-08T02:26:03;106.68;;;53.30;;
69203;SDS011;56317;27.658;85.326;2024-03-08T02:28:30;98.20;;;51.58;;
69203;SDS011;56317;27.658;85.326;2024-03-08T02:30:58;107.00;;;52.35;;
69203;SDS011;56317;27.658;85.326;2024-03-08T02:33:26;102.28;;;53.28;;
69203;SDS011;56317;27.658;85.326;2024-03-08T02:35:54;110.60;;;54.00;;
69203;SDS011;56317;27.658;85.326;2024-03-08T02:38:22;105.10;;;51.22;;
69203;SDS011;56317;27.658;85.326;2024-03-08T02:40:50;110.55;;;50.95;;
69203;SDS011;56317;27.658;85.326;2024-03-08T02:43:18;98.50;;;50.70;;
69203;SDS011;56317;27.658;85.326;2024-03-08T02:45:47;96.65;;;51.42;;
69203;SDS011;56317;27.658;85.326;2024-03-08T02:48:15;111.55;;;51.65;;
69203;SDS011;56317;27.658;85.326;2024-03-08T02:50:42;101.55;;;51.03;;
69203;SDS011;56317;27.658;85.326;2024-03-08T02:53:10;97.70;;;46.65;;
69203;SDS011;56317;27.658;85.326;2024-03-08T02:55:39;84.70;;;43.67;;
69203;SDS011;56317;27.658;85.326;2024-03-08T02:58:07;79.75;;;41.97;;
69203;SDS011;56317;27.658;85.326;2024-03-08T03:00:39;70.85;;;38.17;;
69203;SDS011;56317;27.658;85.326;2024-03-08T03:03:06;71.97;;;39.30;;
69203;SDS011;56317;27.658;85.326;2024-03-08T03:05:34;78.82;;;39.90;;
69203;SDS011;56317;27.658;85.326;2024-03-08T03:08:01;91.32;;;44.22;;
69203;SDS011;56317;27.658;85.326;2024-03-08T03:10:34;78.72;;;41.72;;
69203;SDS011;56317;27.658;85.326;2024-03-08T03:13:02;90.90;;;42.72;;
69203;SDS011;56317;27.658;85.326;2024-03-08T03:15:30;85.40;;;43.63;;
69203;SDS011;56317;27.658;85.326;2024-03-08T03:17:57;78.25;;;42.70;;
69203;SDS011;56317;27.658;85.326;2024-03-08T03:20:30;87.07;;;42.10;;
69203;SDS011;56317;27.658;85.326;2024-03-08T03:23:05;79.35;;;42.40;;
69203;SDS011;56317;27.658;85.326;2024-03-08T03:25:40;82.80;;;41.83;;
69203;SDS011;56317;27.658;85.326;2024-03-08T03:28:07;90.53;;;45.92;;
69203;SDS011;56317;27.658;85.326;2024-03-08T03:30:39;96.10;;;46.17;;
69203;SDS011;56317;27.658;85.326;2024-03-08T03:33:06;82.30;;;44.90;;
69203;SDS011;56317;27.658;85.326;2024-03-08T03:35:35;76.07;;;42.20;;
69203;SDS011;56317;27.658;85.326;2024-03-08T03:38:04;83.28;;;39.17;;
69203;SDS011;56317;27.658;85.326;2024-03-08T03:40:31;77.85;;;41.67;;
69203;SDS011;56317;27.658;85.326;2024-03-08T03:43:02;85.18;;;41.15;;
69203;SDS011;56317;27.658;85.326;2024-03-08T03:45:30;84.30;;;44.58;;
69203;SDS011;56317;27.658;85.326;2024-03-08T03:48:03;93.60;;;47.53;;
69203;SDS011;56317;27.658;85.326;2024-03-08T03:50:40;91.10;;;47.25;;
69203;SDS011;56317;27.658;85.326;2024-03-08T03:53:07;113.70;;;55.55;;
69203;SDS011;56317;27.658;85.326;2024-03-08T03:55:35;118.43;;;59.65;;
69203;SDS011;56317;27.658;85.326;2024-03-08T03:58:04;115.03;;;58.70;;
69203;SDS011;56317;27.658;85.326;2024-03-08T04:00:31;100.75;;;53.67;;
69203;SDS011;56317;27.658;85.326;2024-03-08T04:02:59;78.50;;;42.97;;
69203;SDS011;56317;27.658;85.326;2024-03-08T04:05:26;77.97;;;38.00;;
69203;SDS011;56317;27.658;85.326;2024-03-08T04:07:55;72.10;;;34.85;;
69203;SDS011;56317;27.658;85.326;2024-03-08T04:10:23;82.10;;;37.60;;
69203;SDS011;56317;27.658;85.326;2024-03-08T04:12:50;63.72;;;33.63;;
69203;SDS011;56317;27.658;85.326;2024-03-08T04:15:17;61.90;;;32.63;;
69203;SDS011;56317;27.658;85.326;2024-03-08T04:17:47;54.05;;;30.30;;
69203;SDS011;56317;27.658;85.326;2024-03-08T04:20:15;59.17;;;31.70;;
69203;SDS011;56317;27.658;85.326;2024-03-08T04:22:43;50.97;;;28.90;;
69203;SDS011;56317;27.658;85.326;2024-03-08T04:25:12;57.20;;;30.17;;
69203;SDS011;56317;27.658;85.326;2024-03-08T04:27:39;53.35;;;27.55;;
69203;SDS011;56317;27.658;85.326;2024-03-08T04:30:07;51.60;;;27.73;;
69203;SDS011;56317;27.658;85.326;2024-03-08T04:32:35;49.00;;;26.30;;
69203;SDS011;56317;27.658;85.326;2024-03-08T04:35:03;46.28;;;26.08;;
69203;SDS011;56317;27.658;85.326;2024-03-08T04:37:30;47.97;;;25.83;;
69203;SDS011;56317;27.658;85.326;2024-03-08T04:39:58;42.50;;;23.88;;
69203;SDS011;56317;27.658;85.326;2024-03-08T04:42:25;40.30;;;24.10;;
69203;SDS011;56317;27.658;85.326;2024-03-08T04:44:58;45.58;;;24.67;;
69203;SDS011;56317;27.658;85.326;2024-03-08T04:47:26;39.55;;;21.08;;
69203;SDS011;56317;27.658;85.326;2024-03-08T04:49:53;34.00;;;16.85;;
69203;SDS011;56317;27.658;85.326;2024-03-08T04:52:22;39.50;;;18.73;;
69203;SDS011;56317;27.658;85.326;2024-03-08T04:54:49;41.88;;;20.27;;
69203;SDS011;56317;27.658;85.326;2024-03-08T04:57:17;29.23;;;15.70;;
69203;SDS011;56317;27.658;85.326;2024-03-08T04:59:44;30.33;;;16.40;;
69203;SDS011;56317;27.658;85.326;2024-03-08T05:02:11;32.42;;;17.67;;
69203;SDS011;56317;27.658;85.326;2024-03-08T05:04:38;43.47;;;20.73;;
69203;SDS011;56317;27.658;85.326;2024-03-08T05:07:05;36.83;;;20.45;;
69203;SDS011;56317;27.658;85.326;2024-03-08T05:09:33;34.55;;;20.27;;
69203;SDS011;56317;27.658;85.326;2024-03-08T05:12:01;41.67;;;21.08;;
69203;SDS011;56317;27.658;85.326;2024-03-08T05:14:29;37.25;;;19.98;;
69203;SDS011;56317;27.658;85.326;2024-03-08T05:16:56;37.42;;;19.20;;
69203;SDS011;56317;27.658;85.326;2024-03-08T05:19:24;42.25;;;21.83;;
69203;SDS011;56317;27.658;85.326;2024-03-08T05:21:51;38.38;;;18.98;;
69203;SDS011;56317;27.658;85.326;2024-03-08T05:24:18;38.83;;;19.05;;
69203;SDS011;56317;27.658;85.326;2024-03-08T05:26:45;33.65;;;18.30;;
69203;SDS011;56317;27.658;85.326;2024-03-08T05:29:13;33.08;;;17.25;;
69203;SDS011;56317;27.658;85.326;2024-03-08T05:31:50;34.47;;;19.85;;
69203;SDS011;56317;27.658;85.326;2024-03-08T05:34:18;37.15;;;18.88;;
69203;SDS011;56317;27.658;85.326;2024-03-08T05:36:48;34.22;;;18.63;;
69203;SDS011;56317;27.658;85.326;2024-03-08T05:39:16;32.65;;;19.25;;
69203;SDS011;56317;27.658;85.326;2024-03-08T05:41:44;32.25;;;17.55;;
69203;SDS011;56317;27.658;85.326;2024-03-08T05:44:11;29.08;;;16.75;;
69203;SDS011;56317;27.658;85.326;2024-03-08T05:46:39;28.40;;;16.17;;
69203;SDS011;56317;27.658;85.326;2024-03-08T05:49:07;23.45;;;13.10;;
69203;SDS011;56317;27.658;85.326;2024-03-08T05:51:36;21.33;;;11.25;;
69203;SDS011;56317;27.658;85.326;2024-03-08T05:54:08;21.02;;;10.77;;
69203;SDS011;56317;27.658;85.326;2024-03-08T05:56:37;20.08;;;9.95;;
69203;SDS011;56317;27.658;85.326;2024-03-08T05:59:10;20.58;;;10.80;;
69203;SDS011;56317;27.658;85.326;2024-03-08T06:01:37;26.73;;;13.05;;
69203;SDS011;56317;27.658;85.326;2024-03-08T06:04:06;22.42;;;12.30;;
69203;SDS011;56317;27.658;85.326;2024-03-08T06:06:33;23.30;;;12.35;;
69203;SDS011;56317;27.658;85.326;2024-03-08T06:09:03;27.90;;;12.35;;
69203;SDS011;56317;27.658;85.326;2024-03-08T06:11:34;18.85;;;12.02;;
69203;SDS011;56317;27.658;85.326;2024-03-08T06:14:03;19.83;;;12.32;;
69203;SDS011;56317;27.658;85.326;2024-03-08T06:16:30;20.92;;;11.00;;
69203;SDS011;56317;27.658;85.326;2024-03-08T06:18:59;22.13;;;14.07;;
69203;SDS011;56317;27.658;85.326;2024-03-08T06:21:28;22.95;;;14.65;;
69203;SDS011;56317;27.658;85.326;2024-03-08T06:23:55;26.55;;;14.10;;
69203;SDS011;56317;27.658;85.326;2024-03-08T06:26:23;25.23;;;13.57;;
69203;SDS011;56317;27.658;85.326;2024-03-08T06:28:52;26.85;;;12.07;;
69203;SDS011;56317;27.658;85.326;2024-03-08T06:31:23;18.85;;;10.15;;
69203;SDS011;56317;27.658;85.326;2024-03-08T06:33:50;15.23;;;10.20;;
69203;SDS011;56317;27.658;85.326;2024-03-08T06:36:19;16.30;;;10.70;;
69203;SDS011;56317;27.658;85.326;2024-03-08T06:38:50;19.55;;;10.40;;
69203;SDS011;56317;27.658;85.326;2024-03-08T06:43:47;21.42;;;10.13;;
69203;SDS011;56317;27.658;85.326;2024-03-08T06:46:17;20.38;;;10.48;;
69203;SDS011;56317;27.658;85.326;2024-03-08T06:48:46;25.02;;;10.02;;
69203;SDS011;56317;27.658;85.326;2024-03-08T06:51:14;16.58;;;10.40;;
69203;SDS011;56317;27.658;85.326;2024-03-08T06:53:43;16.02;;;10.05;;
69203;SDS011;56317;27.658;85.326;2024-03-08T06:56:11;15.93;;;8.73;;
69203;SDS011;56317;27.658;85.326;2024-03-08T06:58:38;19.70;;;9.40;;
69203;SDS011;56317;27.658;85.326;2024-03-08T07:01:05;17.15;;;9.27;;
69203;SDS011;56317;27.658;85.326;2024-03-08T07:03:33;16.50;;;8.25;;
69203;SDS011;56317;27.658;85.326;2024-03-08T07:06:00;18.15;;;8.70;;
69203;SDS011;56317;27.658;85.326;2024-03-08T07:08:28;13.90;;;8.00;;
69203;SDS011;56317;27.658;85.326;2024-03-08T07:10:55;15.18;;;8.57;;
69203;SDS011;56317;27.658;85.326;2024-03-08T07:13:23;15.95;;;7.97;;
69203;SDS011;56317;27.658;85.326;2024-03-08T07:15:53;15.07;;;8.27;;
69203;SDS011;56317;27.658;85.326;2024-03-08T07:18:20;14.32;;;6.93;;
69203;SDS011;56317;27.658;85.326;2024-03-08T07:20:48;14.15;;;6.78;;
69203;SDS011;56317;27.658;85.326;2024-03-08T07:23:15;17.73;;;7.82;;
69203;SDS011;56317;27.658;85.326;2024-03-08T07:26:00;15.60;;;7.50;;
69203;SDS011;56317;27.658;85.326;2024-03-08T07:28:27;15.45;;;8.18;;
69203;SDS011;56317;27.658;85.326;2024-03-08T07:30:57;13.98;;;8.35;;
69203;SDS011;56317;27.658;85.326;2024-03-08T07:33:53;13.02;;;7.13;;
69203;SDS011;56317;27.658;85.326;2024-03-08T07:36:20;12.85;;;7.10;;
69203;SDS011;56317;27.658;85.326;2024-03-08T07:38:50;17.20;;;8.00;;
69203;SDS011;56317;27.658;85.326;2024-03-08T07:41:17;13.50;;;8.05;;
69203;SDS011;56317;27.658;85.326;2024-03-08T07:43:54;10.93;;;6.25;;
69203;SDS011;56317;27.658;85.326;2024-03-08T07:46:22;16.63;;;7.00;;
69203;SDS011;56317;27.658;85.326;2024-03-08T07:48:49;18.45;;;8.70;;
69203;SDS011;56317;27.658;85.326;2024-03-08T07:51:18;17.65;;;7.78;;
69203;SDS011;56317;27.658;85.326;2024-03-08T07:53:46;18.90;;;8.13;;
69203;SDS011;56317;27.658;85.326;2024-03-08T07:56:13;15.02;;;8.05;;
69203;SDS011;56317;27.658;85.326;2024-03-08T07:58:42;12.70;;;6.75;;
69203;SDS011;56317;27.658;85.326;2024-03-08T08:01:18;12.80;;;7.50;;
69203;SDS011;56317;27.658;85.326;2024-03-08T08:03:47;14.82;;;8.00;;
69203;SDS011;56317;27.658;85.326;2024-03-08T08:06:17;18.58;;;8.40;;
69203;SDS011;56317;27.658;85.326;2024-03-08T08:08:45;15.93;;;8.27;;
69203;SDS011;56317;27.658;85.326;2024-03-08T08:11:12;15.90;;;7.82;;
69203;SDS011;56317;27.658;85.326;2024-03-08T08:13:42;11.75;;;6.70;;
69203;SDS011;56317;27.658;85.326;2024-03-08T08:16:11;13.85;;;7.28;;
69203;SDS011;56317;27.658;85.326;2024-03-08T08:21:12;15.98;;;7.90;;
69203;SDS011;56317;27.658;85.326;2024-03-08T08:23:39;15.75;;;7.55;;
69203;SDS011;56317;27.658;85.326;2024-03-08T08:26:07;15.45;;;7.60;;
69203;SDS011;56317;27.658;85.326;2024-03-08T08:28:34;18.63;;;7.20;;
69203;SDS011;56317;27.658;85.326;2024-03-08T08:31:01;17.52;;;7.57;;
69203;SDS011;56317;27.658;85.326;2024-03-08T08:33:29;15.05;;;8.38;;
69203;SDS011;56317;27.658;85.326;2024-03-08T08:35:58;17.20;;;8.88;;
69203;SDS011;56317;27.658;85.326;2024-03-08T08:38:25;18.90;;;7.78;;
69203;SDS011;56317;27.658;85.326;2024-03-08T08:40:52;14.98;;;8.77;;
69203;SDS011;56317;27.658;85.326;2024-03-08T08:43:20;20.90;;;8.27;;
69203;SDS011;56317;27.658;85.326;2024-03-08T08:45:50;14.70;;;8.57;;
69203;SDS011;56317;27.658;85.326;2024-03-08T08:48:20;23.45;;;8.45;;
69203;SDS011;56317;27.658;85.326;2024-03-08T08:50:47;16.90;;;8.07;;
69203;SDS011;56317;27.658;85.326;2024-03-08T08:53:16;14.85;;;8.23;;
69203;SDS011;56317;27.658;85.326;2024-03-08T08:55:44;15.40;;;8.48;;
69203;SDS011;56317;27.658;85.326;2024-03-08T09:00:40;16.67;;;8.82;;
69203;SDS011;56317;27.658;85.326;2024-03-08T09:03:09;19.40;;;9.80;;
69203;SDS011;56317;27.658;85.326;2024-03-08T09:05:39;19.15;;;9.32;;
69203;SDS011;56317;27.658;85.326;2024-03-08T09:08:08;19.67;;;10.20;;
69203;SDS011;56317;27.658;85.326;2024-03-08T09:10:35;22.95;;;10.40;;
69203;SDS011;56317;27.658;85.326;2024-03-08T09:13:04;21.75;;;10.18;;
69203;SDS011;56317;27.658;85.326;2024-03-08T09:15:31;34.55;;;15.00;;
69203;SDS011;56317;27.658;85.326;2024-03-08T09:17:59;25.58;;;13.13;;
69203;SDS011;56317;27.658;85.326;2024-03-08T09:20:28;22.30;;;12.02;;
69203;SDS011;56317;27.658;85.326;2024-03-08T09:22:56;24.73;;;14.13;;
69203;SDS011;56317;27.658;85.326;2024-03-08T09:25:24;25.08;;;14.52;;
69203;SDS011;56317;27.658;85.326;2024-03-08T09:27:51;23.35;;;14.10;;
69203;SDS011;56317;27.658;85.326;2024-03-08T09:30:18;23.10;;;14.18;;
69203;SDS011;56317;27.658;85.326;2024-03-08T09:32:48;24.13;;;14.13;;
69203;SDS011;56317;27.658;85.326;2024-03-08T09:35:16;24.53;;;14.17;;
69203;SDS011;56317;27.658;85.326;2024-03-08T09:37:44;32.50;;;15.73;;
69203;SDS011;56317;27.658;85.326;2024-03-08T09:40:14;32.40;;;16.88;;
69203;SDS011;56317;27.658;85.326;2024-03-08T09:42:48;27.98;;;16.33;;
69203;SDS011;56317;27.658;85.326;2024-03-08T09:45:20;32.63;;;18.25;;
69203;SDS011;56317;27.658;85.326;2024-03-08T09:47:50;35.60;;;17.63;;
69203;SDS011;56317;27.658;85.326;2024-03-08T09:50:19;36.55;;;17.77;;
69203;SDS011;56317;27.658;85.326;2024-03-08T09:52:47;28.05;;;17.25;;
69203;SDS011;56317;27.658;85.326;2024-03-08T09:55:16;35.50;;;19.17;;
69203;SDS011;56317;27.658;85.326;2024-03-08T09:57:48;34.72;;;18.13;;
69203;SDS011;56317;27.658;85.326;2024-03-08T10:00:35;32.90;;;18.92;;
69203;SDS011;56317;27.658;85.326;2024-03-08T10:03:02;34.13;;;18.75;;
69203;SDS011;56317;27.658;85.326;2024-03-08T10:05:31;34.42;;;19.42;;
69203;SDS011;56317;27.658;85.326;2024-03-08T10:07:58;33.08;;;18.40;;
69203;SDS011;56317;27.658;85.326;2024-03-08T10:10:25;40.42;;;20.63;;
69203;SDS011;56317;27.658;85.326;2024-03-08T10:12:52;39.67;;;21.77;;
69203;SDS011;56317;27.658;85.326;2024-03-08T10:15:21;41.05;;;22.85;;
69203;SDS011;56317;27.658;85.326;2024-03-08T10:17:48;44.03;;;24.23;;
69203;SDS011;56317;27.658;85.326;2024-03-08T10:22:45;62.72;;;27.98;;
69203;SDS011;56317;27.658;85.326;2024-03-08T10:25:12;50.40;;;30.02;;
69203;SDS011;56317;27.658;85.326;2024-03-08T10:27:39;42.15;;;23.42;;
69203;SDS011;56317;27.658;85.326;2024-03-08T10:30:10;49.20;;;22.08;;
69203;SDS011;56317;27.658;85.326;2024-03-08T10:32:46;57.60;;;29.13;;
69203;SDS011;56317;27.658;85.326;2024-03-08T10:35:13;60.30;;;33.45;;
69203;SDS011;56317;27.658;85.326;2024-03-08T10:37:48;59.42;;;32.35;;
69203;SDS011;56317;27.658;85.326;2024-03-08T10:40:28;67.82;;;34.88;;
69203;SDS011;56317;27.658;85.326;2024-03-08T10:45:39;62.17;;;31.77;;
69203;SDS011;56317;27.658;85.326;2024-03-08T10:50:59;94.03;;;43.05;;
69203;SDS011;56317;27.658;85.326;2024-03-08T10:53:29;69.93;;;36.78;;
69203;SDS011;56317;27.658;85.326;2024-03-08T10:55:57;76.75;;;37.50;;
69203;SDS011;56317;27.658;85.326;2024-03-08T10:58:24;69.45;;;33.42;;
69203;SDS011;56317;27.658;85.326;2024-03-08T11:00:56;90.18;;;42.30;;
69203;SDS011;56317;27.658;85.326;2024-03-08T11:08:43;61.15;;;33.80;;
69203;SDS011;56317;27.658;85.326;2024-03-08T11:11:27;71.00;;;38.47;;
69203;SDS011;56317;27.658;85.326;2024-03-08T11:13:56;71.75;;;39.22;;
69203;SDS011;56317;27.658;85.326;2024-03-08T11:21:43;67.18;;;35.40;;
69203;SDS011;56317;27.658;85.326;2024-03-08T11:24:11;66.15;;;33.22;;
69203;SDS011;56317;27.658;85.326;2024-03-08T11:26:40;72.20;;;33.85;;
69203;SDS011;56317;27.658;85.326;2024-03-08T11:32:14;63.85;;;31.80;;
69203;SDS011;56317;27.658;85.326;2024-03-08T11:34:48;69.95;;;35.00;;
69203;SDS011;56317;27.658;85.326;2024-03-08T11:37:17;60.67;;;34.85;;
69203;SDS011;56317;27.658;85.326;2024-03-08T11:39:47;52.15;;;23.63;;
69203;SDS011;56317;27.658;85.326;2024-03-08T11:42:21;62.70;;;34.80;;
69203;SDS011;56317;27.658;85.326;2024-03-08T11:44:50;70.97;;;35.38;;
69203;SDS011;56317;27.658;85.326;2024-03-08T11:47:19;60.65;;;33.70;;
69203;SDS011;56317;27.658;85.326;2024-03-08T11:49:46;65.57;;;34.53;;
69203;SDS011;56317;27.658;85.326;2024-03-08T11:52:15;61.85;;;33.60;;
69203;SDS011;56317;27.658;85.326;2024-03-08T11:57:24;66.20;;;34.75;;
69203;SDS011;56317;27.658;85.326;2024-03-08T11:59:55;60.45;;;33.22;;
69203;SDS011;56317;27.658;85.326;2024-03-08T12:02:22;52.83;;;26.80;;
69203;SDS011;56317;27.658;85.326;2024-03-08T12:04:57;60.97;;;30.50;;
69203;SDS011;56317;27.658;85.326;2024-03-08T12:13:01;71.47;;;35.22;;
69203;SDS011;56317;27.658;85.326;2024-03-08T12:15:32;60.17;;;32.88;;
69203;SDS011;56317;27.658;85.326;2024-03-08T12:18:00;49.75;;;23.85;;
69203;SDS011;56317;27.658;85.326;2024-03-08T12:20:31;67.35;;;34.88;;
69203;SDS011;56317;27.658;85.326;2024-03-08T12:22:59;70.55;;;34.83;;
69203;SDS011;56317;27.658;85.326;2024-03-08T12:25:32;69.45;;;30.25;;
69203;SDS011;56317;27.658;85.326;2024-03-08T12:28:09;71.10;;;36.47;;
69203;SDS011;56317;27.658;85.326;2024-03-08T12:30:48;64.00;;;31.63;;
69203;SDS011;56317;27.658;85.326;2024-03-08T12:33:21;65.32;;;34.67;;
69203;SDS011;56317;27.658;85.326;2024-03-08T12:35:51;67.50;;;35.88;;
69203;SDS011;56317;27.658;85.326;2024-03-08T12:40:58;75.28;;;37.08;;
69203;SDS011;56317;27.658;85.326;2024-03-08T12:43:25;61.65;;;33.05;;
69203;SDS011;56317;27.658;85.326;2024-03-08T12:45:55;68.97;;;37.63;;
69203;SDS011;56317;27.658;85.326;2024-03-08T12:48:23;74.80;;;39.67;;
69203;SDS011;56317;27.658;85.326;2024-03-08T12:50:51;77.95;;;40.05;;
69203;SDS011;56317;27.658;85.326;2024-03-08T12:53:20;77.13;;;41.40;;
69203;SDS011;56317;27.658;85.326;2024-03-08T12:55:48;77.78;;;39.95;;
69203;SDS011;56317;27.658;85.326;2024-03-08T12:58:15;77.15;;;41.63;;
69203;SDS011;56317;27.658;85.326;2024-03-08T13:00:43;74.90;;;42.53;;
69203;SDS011;56317;27.658;85.326;2024-03-08T13:03:10;81.03;;;44.58;;
69203;SDS011;56317;27.658;85.326;2024-03-08T13:05:38;78.20;;;42.03;;
69203;SDS011;56317;27.658;85.326;2024-03-08T13:08:06;89.15;;;47.72;;
69203;SDS011;56317;27.658;85.326;2024-03-08T13:10:41;83.38;;;42.20;;
69203;SDS011;56317;27.658;85.326;2024-03-08T13:13:09;81.95;;;41.65;;
69203;SDS011;56317;27.658;85.326;2024-03-08T13:15:37;81.30;;;43.08;;
69203;SDS011;56317;27.658;85.326;2024-03-08T13:18:08;97.25;;;44.50;;
69203;SDS011;56317;27.658;85.326;2024-03-08T13:20:35;77.72;;;35.45;;
69203;SDS011;56317;27.658;85.326;2024-03-08T13:23:04;82.53;;;41.25;;
69203;SDS011;56317;27.658;85.326;2024-03-08T13:25:32;81.85;;;40.92;;
69203;SDS011;56317;27.658;85.326;2024-03-08T13:27:59;87.95;;;47.10;;
69203;SDS011;56317;27.658;85.326;2024-03-08T13:30:26;103.95;;;55.67;;
69203;SDS011;56317;27.658;85.326;2024-03-08T13:32:54;86.50;;;50.65;;
69203;SDS011;56317;27.658;85.326;2024-03-08T13:35:21;99.72;;;49.85;;
69203;SDS011;56317;27.658;85.326;2024-03-08T13:37:52;95.22;;;50.60;;
69203;SDS011;56317;27.658;85.326;2024-03-08T13:40:19;95.20;;;50.17;;
69203;SDS011;56317;27.658;85.326;2024-03-08T13:42:50;98.40;;;51.50;;
69203;SDS011;56317;27.658;85.326;2024-03-08T13:45:17;99.05;;;51.70;;
69203;SDS011;56317;27.658;85.326;2024-03-08T13:47:48;102.20;;;50.27;;
69203;SDS011;56317;27.658;85.326;2024-03-08T13:52:49;97.38;;;48.97;;
69203;SDS011;56317;27.658;85.326;2024-03-08T13:55:18;97.22;;;50.80;;
69203;SDS011;56317;27.658;85.326;2024-03-08T13:57:47;103.88;;;50.85;;
69203;SDS011;56317;27.658;85.326;2024-03-08T14:00:16;98.85;;;50.60;;
69203;SDS011;56317;27.658;85.326;2024-03-08T14:02:47;96.90;;;51.50;;
69203;SDS011;56317;27.658;85.326;2024-03-08T14:05:15;96.97;;;51.13;;
69203;SDS011;56317;27.658;85.326;2024-03-08T14:07:43;95.10;;;49.75;;
69203;SDS011;56317;27.658;85.326;2024-03-08T14:10:11;98.72;;;49.67;;
69203;SDS011;56317;27.658;85.326;2024-03-08T14:12:39;89.55;;;47.47;;
69203;SDS011;56317;27.658;85.326;2024-03-08T14:15:06;95.38;;;49.83;;
69203;SDS011;56317;27.658;85.326;2024-03-08T14:17:34;93.00;;;47.88;;
69203;SDS011;56317;27.658;85.326;2024-03-08T14:20:01;97.57;;;49.53;;
69203;SDS011;56317;27.658;85.326;2024-03-08T14:22:29;89.82;;;48.38;;
69203;SDS011;56317;27.658;85.326;2024-03-08T14:24:57;98.47;;;51.78;;
69203;SDS011;56317;27.658;85.326;2024-03-08T14:27:24;102.82;;;50.70;;
69203;SDS011;56317;27.658;85.326;2024-03-08T14:29:52;103.22;;;53.88;;
69203;SDS011;56317;27.658;85.326;2024-03-08T14:32:20;103.93;;;52.20;;
69203;SDS011;56317;27.658;85.326;2024-03-08T14:34:49;101.18;;;54.75;;
69203;SDS011;56317;27.658;85.326;2024-03-08T14:37:17;88.75;;;51.15;;
69203;SDS011;56317;27.658;85.326;2024-03-08T14:39:48;95.45;;;53.42;;
69203;SDS011;56317;27.658;85.326;2024-03-08T14:42:21;120.35;;;61.35;;
69203;SDS011;56317;27.658;85.326;2024-03-08T14:44:51;110.80;;;60.08;;
69203;SDS011;56317;27.658;85.326;2024-03-08T14:47:20;110.88;;;57.35;;
69203;SDS011;56317;27.658;85.326;2024-03-08T14:49:48;113.53;;;56.90;;
69203;SDS011;56317;27.658;85.326;2024-03-08T14:52:15;121.40;;;62.35;;
69203;SDS011;56317;27.658;85.326;2024-03-08T14:54:54;134.15;;;73.30;;
69203;SDS011;56317;27.658;85.326;2024-03-08T14:57:26;134.88;;;70.68;;
69203;SDS011;56317;27.658;85.326;2024-03-08T14:59:54;135.02;;;71.30;;
69203;SDS011;56317;27.658;85.326;2024-03-08T15:02:21;138.98;;;73.60;;